createdAt,value
2022-10-21T00:01:47.668Z,19.30
2022-10-21T00:04:33.296Z,19.30
2022-10-21T00:07:18.826Z,19.20
2022-10-21T00:10:05.548Z,19.30
2022-10-21T00:12:51.119Z,19.30
2022-10-21T00:15:36.940Z,19.20
2022-10-21T00:18:22.518Z,19.10
2022-10-21T00:21:10.741Z,19.00
2022-10-21T00:23:57.066Z,18.80
2022-10-21T00:26:42.715Z,18.80
2022-10-21T00:29:30.512Z,18.90
2022-10-21T00:32:16.295Z,19.10
2022-10-21T00:35:01.773Z,19.20
2022-10-21T00:37:47.335Z,19.20
2022-10-21T00:40:33.655Z,19.20
2022-10-21T00:43:19.455Z,19.30
2022-10-21T00:46:07.793Z,19.40
2022-10-21T00:48:57.992Z,19.30
2022-10-21T00:51:47.211Z,19.30
2022-10-21T00:54:33.424Z,19.30
2022-10-21T00:57:20.695Z,19.10
2022-10-21T01:00:08.645Z,19.10
2022-10-21T01:02:54.343Z,19.10
2022-10-21T01:05:42.372Z,18.80
2022-10-21T01:08:29.298Z,18.60
2022-10-21T01:11:18.155Z,18.90
2022-10-21T01:14:36.825Z,19.10
2022-10-21T01:17:44.501Z,19.00
2022-10-21T01:20:55.045Z,19.10
2022-10-21T01:24:17.593Z,19.10
2022-10-21T01:27:11.465Z,18.90
2022-10-21T01:30:08.437Z,18.30
2022-10-21T01:33:12.365Z,18.40
2022-10-21T01:36:03.505Z,18.40
2022-10-21T01:39:04.876Z,18.10
2022-10-21T01:42:03.137Z,18.20
2022-10-21T01:44:57.360Z,18.70
2022-10-21T01:47:57.156Z,19.00
2022-10-21T01:50:54.619Z,19.10
2022-10-21T01:53:55.327Z,18.80
2022-10-21T01:56:43.751Z,18.30
2022-10-21T01:59:31.969Z,18.10
2022-10-21T02:02:18.359Z,18.20
2022-10-21T02:05:10.819Z,18.70
2022-10-21T02:07:56.937Z,19.00
2022-10-21T02:10:48.838Z,19.10
2022-10-21T02:13:56.199Z,19.10
2022-10-21T02:16:42.625Z,18.40
2022-10-21T02:19:29.298Z,18.10
2022-10-21T02:22:21.881Z,17.90
2022-10-21T02:25:17.067Z,17.80
2022-10-21T02:28:03.466Z,18.10
2022-10-21T02:31:08.131Z,17.90
2022-10-21T02:34:21.573Z,18.10
2022-10-21T02:37:33.236Z,18.40
2022-10-21T02:40:34.890Z,18.80
2022-10-21T02:43:27.497Z,18.90
2022-10-21T02:46:14.421Z,17.60
2022-10-21T02:49:00.136Z,18.50
2022-10-21T02:51:45.984Z,18.30
2022-10-21T02:54:32.598Z,18.40
2022-10-21T02:57:18.408Z,18.80
2022-10-21T03:00:05.986Z,18.90
2022-10-21T03:02:51.701Z,18.30
2022-10-21T03:05:38.830Z,18.10
2022-10-21T03:08:24.401Z,17.80
2022-10-21T03:11:09.978Z,17.60
2022-10-21T03:13:55.916Z,17.80
2022-10-21T03:16:41.900Z,17.60
2022-10-21T03:19:27.835Z,17.70
2022-10-21T03:22:13.403Z,18.10
2022-10-21T03:25:00.367Z,17.90
2022-10-21T03:27:46.568Z,17.80
2022-10-21T03:30:32.216Z,17.50
2022-10-21T03:33:18.522Z,17.90
2022-10-21T03:36:04.816Z,18.30
2022-10-21T03:38:50.507Z,18.50
2022-10-21T03:41:36.250Z,18.20
2022-10-21T03:44:21.639Z,18.50
2022-10-21T03:47:09.254Z,18.60
2022-10-21T03:49:55.495Z,18.50
2022-10-21T03:52:41.175Z,18.00
2022-10-21T03:55:27.357Z,17.90
2022-10-21T03:58:12.999Z,17.90
2022-10-21T04:00:58.326Z,17.80
2022-10-21T04:03:43.982Z,17.80
2022-10-21T04:06:29.597Z,17.80
2022-10-21T04:09:15.192Z,17.50
2022-10-21T04:12:00.881Z,17.50
2022-10-21T04:14:46.593Z,17.50
2022-10-21T04:17:32.255Z,17.60
2022-10-21T04:20:17.747Z,17.40
2022-10-21T04:23:06.240Z,17.00
2022-10-21T04:25:51.897Z,16.70
2022-10-21T04:28:37.650Z,16.70
2022-10-21T04:31:27.413Z,16.90
2022-10-21T04:34:15.872Z,16.90
2022-10-21T04:37:04.172Z,17.20
2022-10-21T04:39:50.863Z,17.10
2022-10-21T04:42:36.511Z,17.10
2022-10-21T04:45:22.175Z,17.20
2022-10-21T04:48:07.944Z,17.00
2022-10-21T04:50:55.027Z,17.30
2022-10-21T04:53:40.300Z,16.80
2022-10-21T04:56:27.575Z,16.60
2022-10-21T04:59:13.322Z,16.70
2022-10-21T05:01:58.835Z,16.70
2022-10-21T05:04:44.491Z,16.60
2022-10-21T05:07:30.397Z,16.80
2022-10-21T05:10:16.174Z,17.20
2022-10-21T05:13:01.919Z,17.30
2022-10-21T05:15:47.227Z,17.10
2022-10-21T05:18:32.841Z,17.10
2022-10-21T05:21:18.846Z,16.60
2022-10-21T05:24:04.644Z,16.60
2022-10-21T05:26:50.138Z,16.60
2022-10-21T05:29:35.413Z,16.80
2022-10-21T05:32:21.415Z,16.70
2022-10-21T05:35:07.777Z,16.80
2022-10-21T05:37:53.665Z,16.70
2022-10-21T05:40:39.514Z,16.70
2022-10-21T05:43:26.068Z,16.50
2022-10-21T05:46:11.725Z,16.70
2022-10-21T05:48:57.536Z,16.90
2022-10-21T05:51:44.764Z,17.30
2022-10-21T05:54:30.391Z,17.40
2022-10-21T05:57:16.226Z,17.50
2022-10-21T06:00:06.060Z,16.70
2022-10-21T06:02:51.715Z,16.40
2022-10-21T06:05:37.668Z,16.70
2022-10-21T06:08:23.303Z,16.70
2022-10-21T06:11:14.920Z,16.50
2022-10-21T06:14:00.878Z,16.50
2022-10-21T06:16:46.773Z,16.70
2022-10-21T06:19:32.259Z,16.60
2022-10-21T06:22:17.941Z,16.50
2022-10-21T06:25:03.573Z,17.00
2022-10-21T06:27:49.266Z,17.20
2022-10-21T06:30:35.451Z,16.90
2022-10-21T06:33:26.050Z,16.90
2022-10-21T06:36:13.373Z,16.70
2022-10-21T06:38:59.660Z,16.50
2022-10-21T06:41:45.974Z,16.50
2022-10-21T06:44:45.103Z,16.60
2022-10-21T06:47:30.898Z,16.30
2022-10-21T06:50:20.659Z,16.20
2022-10-21T06:53:06.921Z,16.00
2022-10-21T06:56:04.619Z,16.10
2022-10-21T06:58:51.128Z,16.10
2022-10-21T07:01:48.393Z,16.20
2022-10-21T07:04:44.895Z,16.20
2022-10-21T07:07:30.673Z,16.80
2022-10-21T07:10:16.192Z,17.00
2022-10-21T07:13:02.235Z,17.00
2022-10-21T07:15:47.583Z,17.10
2022-10-21T07:18:34.120Z,17.40
2022-10-21T07:21:21.776Z,17.70
2022-10-21T07:24:07.352Z,18.00
2022-10-21T07:26:52.869Z,17.90
2022-10-21T07:29:38.703Z,17.60
2022-10-21T07:32:25.234Z,17.00
2022-10-21T07:35:10.926Z,17.10
2022-10-21T07:37:56.450Z,17.00
2022-10-21T07:40:43.543Z,16.90
2022-10-21T07:43:30.244Z,17.20
2022-10-21T07:46:16.821Z,17.40
2022-10-21T07:49:02.163Z,17.20
2022-10-21T07:51:50.207Z,17.30
2022-10-21T07:54:35.798Z,17.60
2022-10-21T07:57:21.480Z,17.30
2022-10-21T08:00:08.398Z,17.60
2022-10-21T08:02:58.124Z,17.60
2022-10-21T08:05:43.663Z,17.50
2022-10-21T08:08:30.618Z,17.30
2022-10-21T08:11:24.942Z,17.30
2022-10-21T08:14:11.295Z,17.50
2022-10-21T08:16:56.909Z,17.40
2022-10-21T08:19:43.024Z,17.40
2022-10-21T08:22:28.834Z,17.20
2022-10-21T08:25:16.818Z,17.10
2022-10-21T08:28:04.956Z,17.20
2022-10-21T08:30:51.468Z,17.00
2022-10-21T08:33:37.229Z,17.00
2022-10-21T08:36:25.125Z,17.00
2022-10-21T08:39:10.365Z,17.10
2022-10-21T08:42:01.793Z,17.30
2022-10-21T08:44:56.797Z,17.40
2022-10-21T08:47:56.248Z,17.40
2022-10-21T08:50:48.159Z,17.10
2022-10-21T08:53:39.934Z,17.00
2022-10-21T08:56:26.191Z,17.00
2022-10-21T08:59:29.882Z,17.20
2022-10-21T09:02:24.474Z,17.10
2022-10-21T09:05:33.145Z,17.30
2022-10-21T09:08:36.401Z,17.30
2022-10-21T09:11:27.832Z,17.40
2022-10-21T09:14:22.349Z,17.50
2022-10-21T09:17:18.456Z,17.50
2022-10-21T09:20:44.221Z,17.40
2022-10-21T09:24:06.514Z,17.40
2022-10-21T09:26:53.917Z,17.40
2022-10-21T09:29:44.560Z,17.20
2022-10-21T09:32:37.722Z,17.20
2022-10-21T09:35:32.489Z,17.40
2022-10-21T09:38:26.268Z,17.30
2022-10-21T09:44:14.754Z,17.30
2022-10-21T09:47:00.807Z,17.30
2022-10-21T09:50:06.793Z,17.30
2022-10-21T09:53:01.461Z,17.40
2022-10-21T09:55:49.610Z,17.40
2022-10-21T09:58:39.065Z,17.30
2022-10-21T10:01:24.863Z,17.40
2022-10-21T10:04:22.590Z,17.50
2022-10-21T10:07:28.359Z,17.40
2022-10-21T10:10:34.448Z,17.40
2022-10-21T10:13:24.903Z,17.30
2022-10-21T10:16:17.428Z,17.40
2022-10-21T10:19:22.378Z,17.40
2022-10-21T10:22:15.901Z,17.30
2022-10-21T10:25:21.684Z,17.10
2022-10-21T10:28:10.441Z,17.00
2022-10-21T10:30:57.620Z,17.10
2022-10-21T10:33:59.480Z,17.20
2022-10-21T10:36:44.994Z,17.40
2022-10-21T10:39:33.692Z,17.20
2022-10-21T10:42:23.101Z,17.20
2022-10-21T10:45:22.618Z,17.40
2022-10-21T10:48:23.152Z,17.30
2022-10-21T10:51:30.294Z,17.20
2022-10-21T10:54:26.528Z,17.40
2022-10-21T10:57:34.068Z,17.30
2022-10-21T11:00:35.514Z,17.20
2022-10-21T11:03:29.764Z,17.10
2022-10-21T11:06:18.114Z,17.10
2022-10-21T11:09:06.724Z,17.20
2022-10-21T11:11:55.812Z,17.20
2022-10-21T11:14:41.471Z,17.10
2022-10-21T11:17:38.450Z,17.10
2022-10-21T11:20:39.515Z,17.10
2022-10-21T11:23:54.391Z,17.10
2022-10-21T11:26:56.690Z,17.10
2022-10-21T11:30:21.357Z,17.20
2022-10-21T11:33:28.089Z,17.20
2022-10-21T11:36:32.955Z,17.30
2022-10-21T11:39:21.864Z,17.20
2022-10-21T11:42:23.507Z,17.40
2022-10-21T11:45:12.373Z,17.40
2022-10-21T11:48:06.223Z,17.40
2022-10-21T11:51:29.304Z,17.30
2022-10-21T11:54:36.482Z,17.50
2022-10-21T11:57:45.619Z,17.50
2022-10-21T12:00:43.233Z,17.70
2022-10-21T12:03:55.350Z,17.70
2022-10-21T12:06:40.579Z,17.70
2022-10-21T12:09:52.277Z,17.70
2022-10-21T12:12:47.514Z,17.70
2022-10-21T12:15:41.354Z,17.60
2022-10-21T12:18:29.569Z,17.80
2022-10-21T12:21:18.997Z,17.70
2022-10-21T12:24:07.429Z,17.60
2022-10-21T12:27:02.522Z,17.60
2022-10-21T12:30:17.250Z,17.70
2022-10-21T12:33:17.826Z,17.70
2022-10-21T12:36:38.422Z,19.00
2022-10-21T12:39:33.417Z,17.80
2022-10-21T12:42:25.071Z,17.80
2022-10-21T12:45:33.449Z,17.70
2022-10-21T12:48:46.141Z,17.70
2022-10-21T12:51:33.735Z,17.70
2022-10-21T12:54:26.628Z,17.80
2022-10-21T12:57:42.073Z,17.80
2022-10-21T13:00:28.643Z,17.70
2022-10-21T13:03:23.636Z,17.80
2022-10-21T13:06:09.199Z,17.80
2022-10-21T13:08:56.207Z,17.90
2022-10-21T13:11:41.907Z,17.80
2022-10-21T13:14:40.312Z,17.70
2022-10-21T13:17:31.449Z,17.70
2022-10-21T13:20:22.735Z,17.80
2022-10-21T13:23:29.417Z,17.70
2022-10-21T13:26:19.776Z,17.60
2022-10-21T13:29:20.501Z,17.60
2022-10-21T13:32:15.115Z,17.60
2022-10-21T13:35:21.092Z,17.60
2022-10-21T13:38:21.022Z,17.60
2022-10-21T13:41:22.721Z,17.60
2022-10-21T13:44:24.727Z,17.60
2022-10-21T13:47:30.455Z,17.60
2022-10-21T13:50:28.537Z,17.60
2022-10-21T13:53:36.415Z,17.70
2022-10-21T13:56:30.822Z,17.70
2022-10-21T13:59:34.651Z,17.70
2022-10-21T14:02:25.411Z,17.70
2022-10-21T14:05:32.864Z,17.60
2022-10-21T14:08:25.951Z,17.70
2022-10-21T14:11:22.953Z,17.70
2022-10-21T14:14:11.101Z,17.70
2022-10-21T14:17:02.725Z,17.80
2022-10-21T14:19:55.579Z,17.80
2022-10-21T14:22:41.983Z,17.90
2022-10-21T14:25:29.147Z,17.80
2022-10-21T14:28:14.828Z,17.60
2022-10-21T14:31:01.495Z,17.70
2022-10-21T14:33:47.718Z,17.70
2022-10-21T14:36:33.513Z,17.70
2022-10-21T14:39:20.999Z,17.80
2022-10-21T14:42:17.122Z,17.80
2022-10-21T14:45:04.805Z,17.80
2022-10-21T14:47:53.797Z,17.80
2022-10-21T14:50:41.667Z,17.90
2022-10-21T14:53:34.789Z,17.30
2022-10-21T14:56:30.640Z,17.70
2022-10-21T14:59:24.838Z,17.70
2022-10-21T15:02:21.637Z,17.70
2022-10-21T15:05:35.655Z,17.70
2022-10-21T15:08:21.421Z,17.60
2022-10-21T15:11:09.948Z,17.60
2022-10-21T15:14:12.582Z,17.90
2022-10-21T15:17:08.757Z,17.90
2022-10-21T15:19:58.224Z,17.80
2022-10-21T15:22:48.357Z,17.70
2022-10-21T15:28:31.724Z,17.70
2022-10-21T15:31:23.187Z,17.90
2022-10-21T15:34:13.809Z,17.80
2022-10-21T15:36:59.319Z,18.00
2022-10-21T15:39:45.740Z,18.10
2022-10-21T15:42:32.103Z,18.10
2022-10-21T15:45:24.837Z,17.70
2022-10-21T15:48:11.378Z,17.70
2022-10-21T15:50:58.027Z,17.80
2022-10-21T15:53:44.630Z,17.70
2022-10-21T15:56:30.999Z,17.80
2022-10-21T15:59:31.318Z,17.80
2022-10-21T16:02:18.062Z,17.60
2022-10-21T16:05:04.220Z,17.60
2022-10-21T16:07:49.687Z,17.60
2022-10-21T16:10:37.338Z,17.70
2022-10-21T16:13:23.426Z,17.70
2022-10-21T16:16:19.906Z,17.80
2022-10-21T16:19:06.860Z,17.60
2022-10-21T16:21:52.628Z,17.60
2022-10-21T16:24:38.595Z,17.80
2022-10-21T16:27:43.264Z,17.80
2022-10-21T16:30:35.811Z,17.80
2022-10-21T16:33:21.446Z,17.80
2022-10-21T16:36:23.148Z,17.70
2022-10-21T16:39:17.863Z,17.70
2022-10-21T16:42:03.712Z,17.70
2022-10-21T16:44:51.098Z,17.60
2022-10-21T16:47:37.585Z,17.90
2022-10-21T16:50:31.676Z,17.60
2022-10-21T16:53:17.921Z,17.60
2022-10-21T16:56:03.691Z,17.70
2022-10-21T16:58:50.590Z,17.80
2022-10-21T17:01:36.916Z,17.70
2022-10-21T17:04:22.402Z,17.80
2022-10-21T17:07:08.348Z,18.00
2022-10-21T17:09:54.044Z,17.80
2022-10-21T17:12:39.359Z,17.80
2022-10-21T17:15:26.322Z,17.80
2022-10-21T17:18:15.678Z,17.70
2022-10-21T17:21:02.516Z,17.60
2022-10-21T17:23:49.708Z,17.80
2022-10-21T17:26:35.349Z,18.00
2022-10-21T17:29:21.164Z,17.60
2022-10-21T17:32:07.629Z,17.70
2022-10-21T17:34:53.349Z,17.90
2022-10-21T17:37:39.107Z,17.80
2022-10-21T17:40:26.691Z,18.00
2022-10-21T17:43:12.695Z,18.20
2022-10-21T17:45:58.420Z,18.20
2022-10-21T17:48:44.215Z,18.10
2022-10-21T17:51:31.169Z,17.90
2022-10-21T17:54:20.516Z,18.00
2022-10-21T17:57:09.483Z,18.10
2022-10-21T17:59:56.510Z,18.00
2022-10-21T18:02:45.181Z,18.00
2022-10-21T18:05:32.679Z,17.80
2022-10-21T18:08:18.544Z,18.10
2022-10-21T18:11:08.917Z,18.10
2022-10-21T18:13:55.423Z,17.90
2022-10-21T18:16:41.623Z,17.90
2022-10-21T18:19:28.474Z,18.00
2022-10-21T18:22:15.940Z,18.00
2022-10-21T18:25:01.398Z,18.10
2022-10-21T18:27:46.918Z,18.40
2022-10-21T18:30:33.677Z,18.50
2022-10-21T18:33:19.903Z,18.20
2022-10-21T18:36:13.562Z,18.00
2022-10-21T18:38:59.943Z,18.20
2022-10-21T18:41:45.772Z,18.30
2022-10-21T18:44:33.362Z,18.30
2022-10-21T18:47:19.057Z,18.10
2022-10-21T18:50:05.549Z,17.90
2022-10-21T18:52:51.285Z,17.80
2022-10-21T18:55:40.077Z,17.70
2022-10-21T18:58:25.607Z,17.80
2022-10-21T19:01:12.395Z,18.00
2022-10-21T19:03:58.424Z,18.10
2022-10-21T19:06:46.131Z,17.90
2022-10-21T19:09:31.850Z,17.80
2022-10-21T19:12:22.436Z,17.90
2022-10-21T19:15:09.995Z,18.00
2022-10-21T19:17:55.738Z,17.80
2022-10-21T19:20:41.568Z,17.70
2022-10-21T19:23:27.877Z,17.60
2022-10-21T19:26:14.945Z,17.80
2022-10-21T19:29:13.579Z,17.60
2022-10-21T19:31:59.382Z,17.60
2022-10-21T19:34:44.905Z,17.80
2022-10-21T19:37:30.650Z,17.60
2022-10-21T19:40:16.241Z,17.40
2022-10-21T19:43:01.582Z,17.60
2022-10-21T19:45:47.070Z,17.60
2022-10-21T19:48:32.752Z,17.60
2022-10-21T19:51:20.739Z,17.60
2022-10-21T19:54:09.944Z,17.60
2022-10-21T19:56:56.279Z,17.50
2022-10-21T19:59:41.758Z,17.30
2022-10-21T20:02:27.382Z,17.30
2022-10-21T20:05:12.952Z,17.30
2022-10-21T20:07:58.513Z,17.10
2022-10-21T20:10:45.583Z,17.20
2022-10-21T20:13:32.321Z,17.30
2022-10-21T20:16:22.821Z,17.30
2022-10-21T20:19:11.065Z,17.30
2022-10-21T20:21:56.482Z,17.30
2022-10-21T20:24:45.636Z,17.30
2022-10-21T20:27:32.232Z,17.40
2022-10-21T20:30:17.703Z,17.30
2022-10-21T20:33:03.205Z,17.30
2022-10-21T20:35:48.660Z,17.40
2022-10-21T20:38:34.309Z,17.40
2022-10-21T20:41:38.591Z,17.20
2022-10-21T20:44:24.433Z,17.20
2022-10-21T20:47:09.692Z,17.20
2022-10-21T20:49:55.391Z,17.40
2022-10-21T20:52:41.080Z,17.40
2022-10-21T20:55:26.614Z,17.20
2022-10-21T20:58:12.067Z,17.20
2022-10-21T21:00:57.581Z,17.10
2022-10-21T21:03:43.385Z,17.30
2022-10-21T21:06:29.267Z,17.20
2022-10-21T21:12:21.792Z,17.20
2022-10-21T21:15:08.427Z,17.20
2022-10-21T21:17:54.381Z,17.30
2022-10-21T21:20:39.804Z,17.40
2022-10-21T21:23:25.190Z,17.20
2022-10-21T21:26:17.752Z,17.20
2022-10-21T21:29:06.251Z,17.30
2022-10-21T21:31:51.748Z,17.10
2022-10-21T21:34:37.175Z,17.20
2022-10-21T21:37:23.631Z,17.10
2022-10-21T21:40:09.855Z,17.10
2022-10-21T21:42:55.612Z,17.20
2022-10-21T21:45:44.413Z,17.40
2022-10-21T21:48:31.981Z,17.40
2022-10-21T21:51:18.040Z,17.40
2022-10-21T21:54:05.221Z,17.30
2022-10-21T21:56:54.467Z,17.20
2022-10-21T21:59:46.495Z,17.10
2022-10-21T22:02:32.487Z,17.20
2022-10-21T22:05:18.025Z,17.20
2022-10-21T22:08:03.583Z,17.30
2022-10-21T22:10:49.415Z,17.50
2022-10-21T22:13:35.883Z,17.50
2022-10-21T22:16:24.349Z,17.10
2022-10-21T22:19:10.036Z,17.20
2022-10-21T22:21:55.855Z,17.30
2022-10-21T22:24:41.901Z,17.10
2022-10-21T22:27:27.414Z,17.10
2022-10-21T22:30:15.691Z,16.90
2022-10-21T22:33:01.465Z,17.00
2022-10-21T22:35:46.857Z,17.10
2022-10-21T22:38:32.562Z,17.30
2022-10-21T22:41:18.249Z,17.40
2022-10-21T22:44:04.204Z,17.10
2022-10-21T22:46:50.659Z,17.10
2022-10-21T22:49:36.177Z,17.00
2022-10-21T22:52:21.680Z,17.10
2022-10-21T22:55:07.333Z,17.30
2022-10-21T22:57:52.803Z,17.20
2022-10-21T23:00:38.404Z,17.00
2022-10-21T23:03:23.892Z,16.90
2022-10-21T23:06:09.464Z,16.90
2022-10-21T23:08:55.335Z,16.80
2022-10-21T23:11:41.131Z,16.90
2022-10-21T23:14:26.912Z,16.90
2022-10-21T23:17:12.486Z,17.00
2022-10-21T23:19:58.079Z,17.20
2022-10-21T23:22:44.148Z,17.30
2022-10-21T23:25:29.994Z,17.40
2022-10-21T23:28:15.544Z,17.20
2022-10-21T23:31:02.792Z,17.20
2022-10-21T23:33:48.810Z,17.20
2022-10-21T23:36:35.546Z,17.30
2022-10-21T23:39:21.110Z,17.30
2022-10-21T23:42:07.023Z,17.20
2022-10-21T23:44:52.418Z,16.90
2022-10-21T23:47:38.805Z,16.80
2022-10-21T23:50:24.603Z,16.80
2022-10-21T23:53:10.264Z,16.90
2022-10-21T23:55:56.069Z,17.00
2022-10-21T23:58:41.553Z,17.20
